Time;durP1;ratioP1;P1;durP2;ratioP2;P2;SDS_P1;SDS_P2;PMS_P1;PMS_P2;Temp;Humidity;BMP_temperature;BMP_pressure;BME280_temperature;BME280_humidity;BME280_pressure;Samples;Min_cycle;Max_cycle;Signal;HPM_P1;HPM_P2
2022/01/25 07:25:41;;;;;;;42.23;22.58;;;;;;;-13.14;72.01;100744.89;1803583;78;22674;-85
2022/01/25 07:28:07;;;;;;;27.50;15.48;;;;;;;-13.04;74.00;100748.40;1755237;81;21056;-86
2022/01/25 07:30:34;;;;;;;27.60;11.55;;;;;;;-12.91;73.28;100750.45;1761235;81;21035;-88
2022/01/25 07:33:05;;;;;;;35.13;15.03;;;;;;;-12.77;73.01;100747.99;1773231;79;21252;-89
2022/01/25 07:35:29;;;;;;;37.50;16.30;;;;;;;-12.66;73.92;100752.73;1742559;78;21070;-88
2022/01/25 07:37:56;;;;;;;43.00;17.37;;;;;;;-12.54;74.14;100756.38;1766927;77;21147;-84
2022/01/25 07:40:22;;;;;;;32.48;13.90;;;;;;;-12.41;74.66;100752.14;1758435;78;21106;-84
2022/01/25 07:42:49;;;;;;;29.30;15.20;;;;;;;-12.32;74.93;100750.84;1719857;78;21067;-88
2022/01/25 07:45:18;;;;;;;29.52;12.58;;;;;;;-12.24;74.70;100750.79;1705657;82;21085;-87
2022/01/25 07:47:47;;;;;;;33.67;11.68;;;;;;;-12.09;75.06;100754.20;1740259;78;21051;-87
2022/01/25 07:52:54;;;;;;;32.17;13.25;;;;;;;-11.91;75.53;100735.80;1779474;77;21129;-85
2022/01/25 07:55:20;;;;;;;33.08;15.23;;;;;;;-11.75;75.68;100738.41;1837543;77;21029;-87
2022/01/25 07:57:47;;;;;;;28.20;15.28;;;;;;;-11.65;75.48;100735.97;1837767;78;20969;-86
2022/01/25 08:00:14;;;;;;;35.00;14.47;;;;;;;-11.57;75.53;100737.52;1827449;78;20970;-85
2022/01/25 08:05:45;;;;;;;27.48;14.75;;;;;;;-11.44;75.48;100737.88;1781160;76;21098;-84
2022/01/25 08:08:12;;;;;;;33.53;15.15;;;;;;;-11.34;75.06;100729.88;1766594;81;21022;-84
2022/01/25 08:10:39;;;;;;;29.27;14.07;;;;;;;-11.19;75.16;100719.92;1763192;79;20994;-85
2022/01/25 08:13:07;;;;;;;32.53;17.23;;;;;;;-11.09;74.50;100726.25;1786844;80;21047;-83
2022/01/25 08:15:34;;;;;;;34.13;17.48;;;;;;;-11.01;75.15;100729.05;1770229;80;21060;-84
2022/01/25 08:18:00;;;;;;;32.58;16.40;;;;;;;-10.92;75.29;100733.09;1760963;79;21051;-84
2022/01/25 08:20:27;;;;;;;41.60;18.98;;;;;;;-10.89;75.56;100739.27;1770806;77;21013;-84
2022/01/25 08:22:53;;;;;;;47.45;18.45;;;;;;;-10.83;75.87;100730.12;1776937;78;21338;-84
2022/01/25 08:25:20;;;;;;;33.80;16.52;;;;;;;-10.77;75.58;100720.60;1790568;77;21256;-85
2022/01/25 08:27:48;;;;;;;45.65;18.40;;;;;;;-10.81;75.10;100693.45;1785528;77;21098;-87
2022/01/25 08:30:15;;;;;;;20.12;12.10;;;;;;;-10.57;75.42;100709.72;1801639;80;21021;-85
2022/01/25 08:32:44;;;;;;;29.75;9.78;;;;;;;-10.51;76.27;100700.56;1792931;80;21014;-85
2022/01/25 08:35:11;;;;;;;25.72;12.93;;;;;;;-10.34;76.27;100718.31;1802532;80;21029;-83
2022/01/25 08:37:39;;;;;;;28.30;10.20;;;;;;;-10.23;74.37;100723.84;1791167;78;21003;-83
2022/01/25 08:40:09;;;;;;;20.82;11.63;;;;;;;-10.17;74.57;100718.05;1813876;78;20955;-85
2022/01/25 08:42:36;;;;;;;19.62;11.20;;;;;;;-10.07;75.52;100717.19;1833876;78;20993;-86
2022/01/25 08:45:06;;;;;;;42.17;14.40;;;;;;;-10.00;75.04;100710.66;1793968;78;21087;-83
2022/01/25 08:47:32;;;;;;;26.37;13.25;;;;;;;-9.98;74.76;100701.60;1781809;78;21070;-85
2022/01/25 08:50:00;;;;;;;29.90;13.70;;;;;;;-9.84;75.35;100697.70;1794017;80;21103;-83
2022/01/25 08:52:27;;;;;;;28.85;11.97;;;;;;;-9.78;73.33;100697.32;1810396;78;21012;-83
2022/01/25 08:54:54;;;;;;;27.10;11.05;;;;;;;-9.66;74.65;100695.78;1816277;78;20943;-85
2022/01/25 08:57:20;;;;;;;24.52;11.60;;;;;;;-9.58;73.44;100692.25;1798833;78;20996;-83
2022/01/25 08:59:47;;;;;;;23.90;11.33;;;;;;;-9.48;73.61;100682.53;1798126;79;21068;-85
2022/01/25 09:02:13;;;;;;;23.27;12.35;;;;;;;-9.46;73.52;100681.89;1802593;78;20959;-83
2022/01/25 09:04:40;;;;;;;33.50;15.55;;;;;;;-9.35;73.93;100684.37;1807062;75;21033;-82
2022/01/25 09:07:06;;;;;;;26.85;12.93;;;;;;;-9.24;73.71;100686.98;1801360;80;21030;-82
2022/01/25 09:09:33;;;;;;;29.82;11.90;;;;;;;-9.11;73.72;100686.69;1796747;78;21089;-83
2022/01/25 09:12:00;;;;;;;29.07;11.73;;;;;;;-8.97;72.89;100687.77;1736833;76;21028;-85
2022/01/25 09:14:27;;;;;;;23.62;12.23;;;;;;;-8.85;73.76;100687.48;1764117;79;21076;-87
2022/01/25 09:16:56;;;;;;;22.27;11.00;;;;;;;-8.78;73.23;100682.53;1770954;80;20948;-87
2022/01/25 09:19:23;;;;;;;23.83;11.68;;;;;;;-8.68;71.85;100678.69;1778795;80;21011;-86
2022/01/25 09:21:49;;;;;;;30.12;12.65;;;;;;;-8.64;72.05;100670.20;1778087;78;21096;-83
2022/01/25 09:24:16;;;;;;;30.92;13.30;;;;;;;-8.49;72.65;100676.81;1775312;78;21072;-84
2022/01/25 09:26:43;;;;;;;25.80;11.80;;;;;;;-8.43;72.16;100680.19;1772379;81;20955;-85
2022/01/25 09:29:10;;;;;;;25.40;11.70;;;;;;;-8.35;71.81;100677.83;1757939;80;20981;-85
2022/01/25 09:31:37;;;;;;;36.55;11.75;;;;;;;-8.25;71.80;100671.44;1762006;80;21010;-83
2022/01/25 09:34:04;;;;;;;22.93;11.60;;;;;;;-8.10;72.87;100664.51;1775898;78;21029;-83
2022/01/25 09:36:31;;;;;;;28.12;11.65;;;;;;;-8.04;72.41;100662.44;1791436;78;21055;-83
2022/01/25 09:39:03;;;;;;;29.90;11.48;;;;;;;-7.98;70.94;100657.84;1801552;77;21038;-82
2022/01/25 09:41:30;;;;;;;30.02;12.25;;;;;;;-7.86;70.30;100654.08;1792625;76;21077;-82
2022/01/25 09:43:57;;;;;;;28.12;11.25;;;;;;;-7.81;70.36;100648.98;1768976;77;21074;-86
2022/01/25 09:46:25;;;;;;;22.42;10.03;;;;;;;-7.67;71.51;100646.20;1745199;80;21049;-82
2022/01/25 09:48:52;;;;;;;32.58;13.30;;;;;;;-7.55;70.56;100643.30;1744233;81;21062;-83
2022/01/25 09:51:20;;;;;;;22.48;9.55;;;;;;;-7.44;71.00;100638.63;1738587;82;20999;-80
2022/01/25 09:53:47;;;;;;;25.52;11.20;;;;;;;-7.29;70.44;100629.11;1737391;82;21000;-84
2022/01/25 09:56:14;;;;;;;21.82;10.63;;;;;;;-7.09;69.64;100632.64;1740560;81;21581;-84
2022/01/25 09:58:42;;;;;;;32.88;12.80;;;;;;;-6.88;69.12;100615.56;1748228;81;21035;-84
2022/01/25 10:01:09;;;;;;;25.82;11.00;;;;;;;-6.69;70.14;100620.21;1755569;80;21523;-83
2022/01/25 10:03:48;;;;;;;24.10;10.68;;;;;;;-6.46;70.71;100605.33;1763439;75;22435;31
2022/01/25 10:06:20;;;;;;;22.42;9.88;;;;;;;-6.26;69.70;100595.27;1693212;82;21113;-83
2022/01/25 10:08:46;;;;;;;23.73;8.68;;;;;;;-6.15;69.40;100578.63;1723208;79;21047;-84
2022/01/25 10:11:16;;;;;;;33.20;9.88;;;;;;;-5.70;68.05;100574.75;1766020;77;21138;-84
2022/01/25 10:16:53;;;;;;;25.82;9.28;;;;;;;-5.31;66.18;100585.25;1797646;76;21070;-75
2022/01/25 10:19:26;;;;;;;23.65;8.95;;;;;;;-4.97;67.09;100563.23;1750091;81;21124;-83
2022/01/25 10:21:53;;;;;;;24.85;8.73;;;;;;;-4.72;63.62;100564.28;1738111;80;21014;-83
2022/01/25 10:24:24;;;;;;;20.02;7.83;;;;;;;-4.53;64.50;100557.78;1751399;78;21059;-82
2022/01/25 10:26:56;;;;;;;21.85;8.35;;;;;;;-4.47;64.08;100551.80;1769080;77;21096;-83
2022/01/25 10:29:34;;;;;;;28.55;10.25;;;;;;;-4.36;61.61;100548.59;1728868;80;21100;-82
2022/01/25 10:32:08;;;;;;;;;;;;;;;-4.17;62.99;100535.30;1744918;81;21018;-83
2022/01/25 10:34:45;;;;;;;23.05;7.37;;;;;;;-4.15;58.64;100533.33;1736150;81;20157;-82
2022/01/25 10:37:16;;;;;;;12.65;6.70;;;;;;;-3.98;61.87;100516.47;1740024;82;21013;-85
2022/01/25 10:39:51;;;;;;;20.57;8.30;;;;;;;-4.00;57.56;100515.14;1762600;80;21265;-84
2022/01/25 10:42:24;;;;;;;20.85;7.75;;;;;;;-3.93;58.21;100508.73;1766111;80;21001;-86
2022/01/25 10:44:56;;;;;;;17.87;7.00;;;;;;;-3.89;58.36;100497.94;1765027;76;21137;-80
2022/01/25 10:47:50;;;;;;;20.70;7.70;;;;;;;-3.88;57.88;100492.09;1730254;81;21177;-83
2022/01/25 10:50:21;;;;;;;25.92;8.45;;;;;;;-3.76;58.80;100490.98;1722384;81;20972;-82
2022/01/25 10:53:15;;;;;;;19.40;8.05;;;;;;;-3.60;56.83;100499.95;1702092;82;21065;-83
2022/01/25 10:55:46;;;;;;;23.30;9.20;;;;;;;-3.62;54.28;100501.50;1742786;79;21112;-84
2022/01/25 10:58:15;;;;;;;21.62;7.35;;;;;;;-3.64;54.69;100495.45;1742482;80;20963;-81
2022/01/25 11:00:47;;;;;;;22.80;7.12;;;;;;;-3.64;56.26;100490.00;1697302;82;21139;-83
2022/01/25 11:03:32;;;;;;;25.23;8.30;;;;;;;-3.61;56.33;100480.39;1772895;78;21011;-83
2022/01/25 11:06:17;;;;;;;25.23;9.25;;;;;;;-3.56;57.19;100473.89;1760110;79;21298;-83
2022/01/25 11:08:48;;;;;;;18.48;7.95;;;;;;;-3.59;55.49;100472.45;1759796;81;20983;-82
2022/01/25 11:14:57;;;;;;;32.63;7.83;;;;;;;-3.58;56.01;100460.23;1785050;79;21129;-82
2022/01/25 11:17:26;;;;;;;17.15;7.65;;;;;;;-3.74;55.49;100469.07;1794626;78;21081;-82
2022/01/25 11:19:56;;;;;;;23.52;8.85;;;;;;;-3.60;57.13;100463.95;1781491;80;20976;-79
2022/01/25 11:22:24;;;;;;;28.12;8.93;;;;;;;-3.70;56.56;100462.98;1826180;78;21322;-82
2022/01/25 11:25:00;;;;;;;30.23;11.78;;;;;;;-3.65;57.25;100467.03;1784163;79;20991;-82
2022/01/25 11:27:29;;;;;;;30.25;12.37;;;;;;;-3.70;56.43;100458.27;1813320;78;20971;-82
2022/01/25 11:30:07;;;;;;;20.90;9.28;;;;;;;-3.77;56.30;100462.16;1786341;80;20979;-83
2022/01/25 11:32:42;;;;;;;25.37;9.20;;;;;;;-3.71;56.92;100465.44;1770129;80;21031;-85
2022/01/25 11:35:13;;;;;;;27.70;8.88;;;;;;;-3.76;56.23;100466.47;1792875;77;21019;-81
2022/01/25 11:37:43;;;;;;;26.25;10.90;;;;;;;-3.83;54.88;100452.94;1782865;78;21011;-80
2022/01/25 11:40:40;;;;;;;33.78;9.35;;;;;;;-3.91;54.73;100460.14;1797058;78;21042;-82
2022/01/25 11:43:13;;;;;;;18.67;7.53;;;;;;;-3.87;55.88;100450.63;1776890;80;21030;-83
2022/01/25 11:45:48;;;;;;;29.30;8.55;;;;;;;-3.87;55.42;100446.81;1784196;78;21227;-83
2022/01/25 11:48:24;;;;;;;16.87;7.22;;;;;;;-3.88;55.28;100442.91;1772533;78;21030;-83
2022/01/25 11:50:51;;;;;;;21.62;8.10;;;;;;;-3.72;57.16;100434.07;1766600;80;21007;-83
2022/01/25 11:53:23;;;;;;;24.00;9.58;;;;;;;-3.73;55.31;100438.66;1769771;78;21032;-84
2022/01/25 12:02:10;;;;;;;22.20;7.92;;;;;;;-3.47;55.80;100419.70;1782090;78;21174;-81
2022/01/25 12:10:47;;;;;;;19.73;7.03;;;;;;;-3.42;55.92;100417.02;1785582;78;21071;-83
2022/01/25 12:13:25;;;;;;;23.52;7.92;;;;;;;-3.46;54.45;100411.30;1774628;76;22523;31
2022/01/25 12:16:29;;;;;;;20.40;8.63;;;;;;;-3.42;54.76;100413.20;1719905;81;21012;-83
2022/01/25 12:19:03;;;;;;;16.67;6.75;;;;;;;-3.40;53.65;100415.83;1708334;82;21292;-84
2022/01/25 12:24:52;;;;;;;19.20;7.67;;;;;;;-3.36;53.68;100413.92;1737461;80;21106;-83
2022/01/25 12:27:25;;;;;;;20.02;7.05;;;;;;;-3.30;54.61;100409.14;1777270;77;21023;-83
2022/01/25 12:30:14;;;;;;;17.63;7.50;;;;;;;-3.24;55.17;100406.91;1737404;81;20996;-83
2022/01/25 12:38:51;;;;;;;16.25;7.53;;;;;;;-3.24;52.51;100405.64;1784789;76;21032;-83
2022/01/25 12:41:24;;;;;;;17.83;7.13;;;;;;;-3.25;52.54;100403.88;1786160;77;21125;31
2022/01/25 12:47:08;;;;;;;19.48;6.80;;;;;;;-3.22;54.16;100409.14;1788537;76;21038;-81
2022/01/25 12:49:40;;;;;;;17.30;6.42;;;;;;;-3.24;53.93;100398.42;1787224;80;21006;-81
2022/01/25 12:52:07;;;;;;;20.62;7.10;;;;;;;-3.29;54.34;100398.56;1786572;80;21046;-82
2022/01/25 12:54:36;;;;;;;17.27;7.67;;;;;;;-3.24;55.25;100395.47;1785949;79;20996;-83
2022/01/25 12:57:07;;;;;;;22.13;7.85;;;;;;;-3.18;54.32;100394.02;1777710;80;21051;-81
2022/01/25 12:59:37;;;;;;;16.52;7.87;;;;;;;-3.07;54.68;100386.53;1786013;79;20989;-82
2022/01/25 13:02:04;;;;;;;30.15;8.18;;;;;;;-3.01;54.49;100388.11;1773792;79;21003;-82
2022/01/25 13:04:30;;;;;;;28.05;8.08;;;;;;;-2.98;54.90;100398.83;1774906;79;21105;-81
2022/01/25 13:06:57;;;;;;;20.90;7.15;;;;;;;-2.96;54.49;100395.59;1754275;79;21145;-81
2022/01/25 13:09:30;;;;;;;22.73;8.08;;;;;;;-2.88;55.25;100394.30;1782078;79;20963;-81
2022/01/25 13:20:53;;;;;;;25.68;7.47;;;;;;;-2.98;53.20;100389.92;1810735;77;21109;-82
2022/01/25 13:23:33;;;;;;;19.57;7.62;;;;;;;-3.11;52.35;100389.31;1823106;76;21109;31
2022/01/25 13:26:13;;;;;;;20.40;7.20;;;;;;;-3.06;53.08;100386.62;1799775;75;21058;31
2022/01/25 13:31:21;;;;;;;17.65;7.78;;;;;;;-2.91;54.33;100376.72;1765403;76;21059;-82
2022/01/25 13:33:48;;;;;;;24.00;7.33;;;;;;;-2.91;54.19;100380.13;1758112;77;21335;-81
2022/01/25 13:36:20;;;;;;;22.30;8.90;;;;;;;-2.74;54.34;100375.88;1781784;77;21076;-83
2022/01/25 13:38:48;;;;;;;27.62;8.48;;;;;;;-2.75;53.52;100378.34;1809283;76;21035;-84
2022/01/25 13:41:28;;;;;;;15.43;7.25;;;;;;;-2.77;53.24;100373.17;1747049;78;21498;31
2022/01/25 13:52:35;;;;;;;18.82;9.00;;;;;;;-2.75;54.01;100374.12;1829825;75;21058;-81
2022/01/25 13:55:24;;;;;;;20.40;7.92;;;;;;;-2.80;53.82;100361.59;1775279;76;21165;31
2022/01/25 13:57:57;;;;;;;21.45;8.30;;;;;;;-2.85;54.07;100363.02;1758820;76;21164;31
2022/01/25 14:00:29;;;;;;;28.75;7.45;;;;;;;-2.85;54.63;100366.84;1750544;77;21168;31
2022/01/25 14:02:58;;;;;;;23.38;7.78;;;;;;;-2.91;55.02;100371.63;1755059;76;21155;-78
2022/01/25 14:05:45;;;;;;;24.10;9.08;;;;;;;-2.99;54.42;100367.43;1775473;75;21236;31
2022/01/25 14:11:30;;;;;;;27.40;8.78;;;;;;;-3.08;54.90;100364.05;1816966;76;21040;-82
2022/01/25 14:28:54;;;;;;;18.75;8.63;;;;;;;-3.11;55.52;100353.70;1791697;77;21139;31
2022/01/25 14:31:26;;;;;;;25.70;9.00;;;;;;;-3.14;55.62;100345.94;1782524;76;21177;-80
2022/01/25 14:33:56;;;;;;;23.40;8.65;;;;;;;-3.12;55.97;100350.70;1857759;77;20986;-84
2022/01/25 14:36:25;;;;;;;18.45;8.05;;;;;;;-3.16;55.66;100351.72;1848932;76;20967;-82
2022/01/25 14:39:16;;;;;;;21.90;8.30;;;;;;;-3.18;55.96;100346.95;1820514;76;21090;31
2022/01/25 14:41:50;;;;;;;20.05;8.23;;;;;;;-3.18;56.17;100346.58;1806345;76;21097;31
2022/01/25 14:44:24;;;;;;;25.10;9.15;;;;;;;-3.16;56.46;100342.44;1693078;80;21078;31
2022/01/25 14:47:06;;;;;;;26.62;9.45;;;;;;;-3.20;56.31;100343.09;1707022;78;21136;31
2022/01/25 14:49:35;;;;;;;28.92;10.08;;;;;;;-3.17;56.29;100345.77;1756730;79;21059;-83
2022/01/25 14:58:00;;;;;;;22.15;8.78;;;;;;;-3.27;56.09;100332.98;1791994;76;21263;-80
2022/01/25 15:00:13;;;;;;;27.15;9.25;;;;;;;-3.30;55.91;100341.75;1799658;76;21059;-82
2022/01/25 15:08:53;;;;;;;21.15;8.03;;;;;;;-3.40;57.02;100334.45;1819905;75;21090;-81
2022/01/25 15:11:37;;;;;;;22.05;7.72;;;;;;;-3.42;57.16;100325.47;1854771;75;21050;31
2022/01/25 15:14:35;;;;;;;21.97;8.18;;;;;;;-3.38;57.33;100334.51;1814873;75;21093;31
2022/01/25 15:16:54;;;;;;;17.17;7.58;;;;;;;-3.43;57.15;100336.83;1734151;80;21001;-85
2022/01/25 15:19:20;;;;;;;27.77;8.23;;;;;;;-3.43;57.58;100335.56;1741170;80;21499;-84
2022/01/25 15:21:49;;;;;;;33.48;10.15;;;;;;;-3.44;57.66;100339.78;1816546;77;21057;-81
2022/01/25 15:24:19;;;;;;;20.37;8.13;;;;;;;-3.45;57.66;100340.55;1845096;76;21034;-83
2022/01/25 15:26:52;;;;;;;22.02;9.18;;;;;;;-3.45;57.83;100341.83;1849802;77;21038;-83
2022/01/25 15:29:22;;;;;;;25.48;9.28;;;;;;;-3.49;58.18;100332.30;1820946;75;21070;-79
2022/01/25 15:31:44;;;;;;;28.15;9.98;;;;;;;-3.46;58.14;100336.28;1769048;79;21046;-82
2022/01/25 15:34:10;;;;;;;24.35;8.33;;;;;;;-3.48;58.41;100329.35;1815451;78;21030;-84
2022/01/25 15:36:37;;;;;;;25.70;8.25;;;;;;;-3.46;58.30;100324.84;1770690;78;21027;-85
2022/01/25 15:39:04;;;;;;;20.70;8.30;;;;;;;-3.49;58.42;100325.95;1766698;80;21034;-83
2022/01/25 15:41:34;;;;;;;29.95;9.48;;;;;;;-3.49;58.54;100328.48;1761857;80;21057;-84
2022/01/25 15:43:59;;;;;;;26.15;9.23;;;;;;;-3.51;58.67;100321.59;1742965;80;21109;-82
2022/01/25 15:46:32;;;;;;;24.18;10.20;;;;;;;-3.53;58.84;100325.31;1772215;77;21071;-76
2022/01/25 15:49:02;;;;;;;27.62;9.90;;;;;;;-3.59;59.05;100331.36;1847641;76;21085;-82
2022/01/25 15:51:29;;;;;;;36.28;10.08;;;;;;;-3.56;59.09;100326.82;1847419;76;21053;-83
2022/01/25 15:53:56;;;;;;;22.85;8.05;;;;;;;-3.58;59.25;100327.14;1859680;75;21107;-82
2022/01/25 15:56:24;;;;;;;22.37;9.80;;;;;;;-3.58;59.30;100328.04;1872566;76;20974;-84
2022/01/25 15:58:50;;;;;;;25.92;9.58;;;;;;;-3.57;59.48;100321.28;1872694;76;21022;-83
2022/01/25 16:01:17;;;;;;;28.10;8.90;;;;;;;-3.57;59.57;100326.36;1872690;77;21277;-83
2022/01/25 16:03:43;;;;;;;26.95;8.20;;;;;;;-3.58;59.62;100320.41;1872787;77;20998;-83
2022/01/25 16:06:10;;;;;;;21.45;9.25;;;;;;;-3.55;59.60;100323.09;1872418;76;21021;-83
2022/01/25 16:08:38;;;;;;;28.25;10.03;;;;;;;-3.56;59.85;100328.09;1872876;77;21014;-83
2022/01/25 16:11:13;;;;;;;26.40;8.60;;;;;;;-3.53;59.78;100326.99;1872671;77;21050;-81
2022/01/25 16:13:35;;;;;;;26.33;8.18;;;;;;;-3.52;60.03;100331.27;1871144;76;21100;-83
2022/01/25 16:16:01;;;;;;;29.50;10.48;;;;;;;-3.51;59.91;100326.27;1835046;75;21023;-84
2022/01/25 16:18:29;;;;;;;26.60;8.48;;;;;;;-3.48;59.93;100326.44;1883036;75;20970;-83
2022/01/25 16:20:56;;;;;;;21.07;8.98;;;;;;;-3.49;60.02;100325.95;1842642;74;21051;-83
2022/01/25 16:23:22;;;;;;;24.95;8.38;;;;;;;-3.49;60.33;100320.00;1790311;78;21129;-83
2022/01/25 16:25:57;;;;;;;24.15;9.00;;;;;;;-3.49;60.36;100318.31;1776106;75;22387;31
2022/01/25 16:28:24;;;;;;;24.77;8.80;;;;;;;-3.47;60.36;100319.67;1761727;77;21040;-83
2022/01/25 16:31:03;;;;;;;26.15;8.65;;;;;;;-3.45;60.39;100318.08;1738224;78;22563;-80
2022/01/25 16:33:26;;;;;;;23.57;9.18;;;;;;;-3.47;60.45;100326.03;1761578;79;21019;-84
2022/01/25 16:35:52;;;;;;;25.12;9.40;;;;;;;-3.48;60.40;100320.45;1760897;78;21003;-84
2022/01/25 16:38:19;;;;;;;23.98;9.73;;;;;;;-3.52;60.68;100321.99;1761005;79;20976;-83
2022/01/25 16:40:45;;;;;;;25.20;9.85;;;;;;;-3.51;60.81;100327.94;1760680;79;21003;-83
2022/01/25 16:43:11;;;;;;;26.70;10.20;;;;;;;-3.52;60.87;100327.08;1760726;79;21083;-83
2022/01/25 16:45:38;;;;;;;25.60;10.58;;;;;;;-3.51;61.08;100327.94;1760787;78;21094;-83
2022/01/25 16:48:04;;;;;;;24.47;9.58;;;;;;;-3.47;60.85;100324.35;1760718;78;20980;-83
2022/01/25 16:50:35;;;;;;;20.95;8.33;;;;;;;-3.52;61.19;100319.83;1767206;78;21059;-82
2022/01/25 16:52:59;;;;;;;25.82;8.65;;;;;;;-3.56;61.34;100327.72;1779095;79;21025;-84
2022/01/25 16:55:25;;;;;;;24.65;8.80;;;;;;;-3.54;61.42;100323.58;1757060;78;21125;-83
2022/01/25 16:57:52;;;;;;;28.17;9.45;;;;;;;-3.54;61.65;100329.05;1735025;76;21079;-83
2022/01/25 17:00:19;;;;;;;27.77;8.50;;;;;;;-3.52;61.30;100320.72;1799365;77;21069;-83
2022/01/25 17:02:46;;;;;;;25.02;10.70;;;;;;;-3.54;61.69;100318.87;1799527;78;20978;-83
2022/01/25 17:05:12;;;;;;;30.57;11.12;;;;;;;-3.55;61.87;100318.01;1799254;77;21350;-84
2022/01/25 17:07:39;;;;;;;23.98;8.90;;;;;;;-3.56;61.91;100320.09;1799357;78;21001;-84
2022/01/25 17:10:08;;;;;;;19.70;8.35;;;;;;;-3.58;62.04;100314.06;1799318;78;21030;-84
2022/01/25 17:12:36;;;;;;;24.02;9.18;;;;;;;-3.56;62.25;100317.92;1799335;78;21026;-85
2022/01/25 17:15:07;;;;;;;26.70;9.05;;;;;;;-3.61;62.43;100325.33;1795261;77;21042;-81
2022/01/25 17:17:35;;;;;;;22.02;8.28;;;;;;;-3.61;62.52;100322.78;1794010;78;21008;-82
2022/01/25 17:20:02;;;;;;;35.20;8.70;;;;;;;-3.62;62.89;100320.65;1785650;77;21114;-80
2022/01/25 17:22:28;;;;;;;25.70;9.80;;;;;;;-3.63;62.88;100321.83;1756336;79;21091;-84
2022/01/25 17:24:55;;;;;;;21.12;8.68;;;;;;;-3.64;63.40;100323.88;1735560;80;21051;-83
2022/01/25 17:27:21;;;;;;;24.20;9.20;;;;;;;-3.60;62.79;100327.09;1761363;79;21019;-83
2022/01/25 17:29:47;;;;;;;27.45;10.30;;;;;;;-3.61;63.11;100322.37;1761323;80;21028;-84
2022/01/25 17:32:14;;;;;;;27.90;8.50;;;;;;;-3.60;63.27;100321.59;1761589;81;20976;-83
2022/01/25 17:40:23;;;;;;;29.10;10.55;;;;;;;-3.61;64.00;100327.46;1735797;77;21054;-83
2022/01/25 17:42:50;;;;;;;25.27;10.00;;;;;;;-3.66;64.81;100330.55;1787533;79;21077;-83
2022/01/25 17:45:19;;;;;;;25.12;9.90;;;;;;;-3.64;64.01;100328.97;1787506;80;21053;-84
2022/01/25 17:47:46;;;;;;;24.35;9.13;;;;;;;-3.66;64.91;100331.83;1786599;79;20998;-82
2022/01/25 17:50:13;;;;;;;34.10;11.00;;;;;;;-3.67;65.31;100330.96;1785776;79;21041;-81
2022/01/25 17:52:41;;;;;;;25.55;10.45;;;;;;;-3.64;64.70;100334.05;1787031;80;20992;-84
2022/01/25 17:55:08;;;;;;;32.90;11.05;;;;;;;-3.61;64.22;100341.84;1787605;80;21018;-82
2022/01/25 17:57:35;;;;;;;29.80;11.12;;;;;;;-3.63;64.94;100336.67;1787409;80;20966;-83
2022/01/25 18:00:03;;;;;;;24.43;9.80;;;;;;;-3.68;65.43;100335.59;1787573;80;21129;-84
2022/01/25 18:02:33;;;;;;;29.95;11.22;;;;;;;-3.66;64.96;100343.27;1785698;80;21073;-83
2022/01/25 18:05:00;;;;;;;30.82;10.82;;;;;;;-3.66;65.85;100343.27;1787638;79;21087;-83
2022/01/25 18:07:26;;;;;;;25.72;11.05;;;;;;;-3.69;65.96;100339.31;1787624;80;21220;-84
2022/01/25 18:09:52;;;;;;;31.17;12.03;;;;;;;-3.70;66.02;100336.27;1787588;80;20986;-83
2022/01/25 18:12:19;;;;;;;27.27;10.53;;;;;;;-3.70;65.82;100334.63;1787663;79;20947;-84
2022/01/25 18:14:46;;;;;;;29.80;11.12;;;;;;;-3.70;65.97;100331.20;1787442;77;21042;-83
2022/01/25 18:17:17;;;;;;;28.32;9.20;;;;;;;-3.71;65.78;100339.22;1787591;80;21077;-84
2022/01/25 18:19:47;;;;;;;32.25;10.40;;;;;;;-3.71;66.10;100341.77;1787410;76;21113;-82
2022/01/25 18:22:25;;;;;;;31.50;10.18;;;;;;;-3.68;65.43;100346.13;1787554;77;20979;-84
2022/01/25 18:24:58;;;;;;;27.55;10.03;;;;;;;-3.71;66.19;100343.03;1785773;77;21183;-83
2022/01/25 18:27:15;;;;;;;18.57;8.08;;;;;;;-3.70;66.47;100347.71;1778946;76;21043;-83
2022/01/25 18:29:42;;;;;;;25.43;9.35;;;;;;;-3.72;66.17;100331.52;1786091;77;21291;-84
2022/01/25 18:32:10;;;;;;;24.77;9.48;;;;;;;-3.67;65.90;100332.23;1786397;77;20992;-84
2022/01/25 18:34:36;;;;;;;32.42;10.35;;;;;;;-3.65;65.67;100327.23;1786426;78;21020;-83
2022/01/25 18:37:03;;;;;;;30.57;9.48;;;;;;;-3.68;66.82;100329.60;1786426;79;21080;-84
2022/01/25 18:39:29;;;;;;;24.43;9.53;;;;;;;-3.65;65.79;100333.19;1786274;79;21319;-85
2022/01/25 18:41:56;;;;;;;21.62;8.63;;;;;;;-3.68;66.72;100339.40;1786421;80;21064;-84
2022/01/25 18:44:22;;;;;;;24.57;8.83;;;;;;;-3.64;65.93;100332.78;1786226;79;21052;-82
2022/01/25 18:46:49;;;;;;;26.05;9.73;;;;;;;-3.66;66.11;100330.55;1786017;80;20988;-82
2022/01/25 18:49:16;;;;;;;27.02;10.18;;;;;;;-3.66;66.07;100329.28;1786194;80;21015;-83
2022/01/25 18:51:43;;;;;;;25.52;9.63;;;;;;;-3.69;66.41;100324.06;1786350;80;21043;-83
2022/01/25 18:54:11;;;;;;;25.17;10.60;;;;;;;-3.66;66.04;100333.09;1727931;77;21086;-83
2022/01/25 18:56:39;;;;;;;26.70;10.65;;;;;;;-3.65;65.85;100341.22;1671122;86;21039;-84
2022/01/25 18:59:05;;;;;;;25.37;10.88;;;;;;;-3.64;65.85;100327.70;1675610;81;21021;-83
2022/01/25 19:01:34;;;;;;;27.10;10.63;;;;;;;-3.63;65.79;100332.00;1661674;86;21016;-84
2022/01/25 19:04:01;;;;;;;31.65;12.53;;;;;;;-3.64;65.97;100330.23;1661658;85;21059;-83
2022/01/25 19:06:29;;;;;;;47.88;16.45;;;;;;;-3.63;65.95;100314.20;1661539;85;20985;-83
2022/01/25 19:08:58;;;;;;;36.42;14.50;;;;;;;-3.63;66.27;100315.48;1661371;84;21055;-83
2022/01/25 19:11:26;;;;;;;25.72;10.05;;;;;;;-3.62;66.54;100324.83;1661690;85;21032;-82
2022/01/25 19:14:06;;;;;;;29.05;11.43;;;;;;;-3.60;66.19;100325.81;1686186;75;21125;31
2022/01/25 19:16:32;;;;;;;29.40;10.95;;;;;;;-3.68;66.99;100320.33;1691400;80;21149;-84
2022/01/25 19:18:59;;;;;;;31.30;11.20;;;;;;;-3.65;66.31;100318.34;1695257;82;21093;-84
2022/01/25 19:21:25;;;;;;;27.95;10.08;;;;;;;-3.63;66.87;100319.29;1695271;83;21100;-83
2022/01/25 19:23:52;;;;;;;23.52;9.23;;;;;;;-3.61;67.04;100322.37;1695049;82;21068;-83
2022/01/25 19:26:20;;;;;;;27.70;10.78;;;;;;;-3.64;67.17;100306.09;1695251;85;21045;-85
2022/01/25 19:28:47;;;;;;;34.83;10.53;;;;;;;-3.63;66.68;100305.31;1695016;83;21334;-83
2022/01/25 19:31:13;;;;;;;24.57;10.15;;;;;;;-3.68;67.81;100309.27;1695067;82;21046;-84
2022/01/25 19:33:42;;;;;;;24.67;8.63;;;;;;;-3.68;67.58;100306.36;1695214;82;21029;-84
2022/01/25 19:36:12;;;;;;;29.42;9.75;;;;;;;-3.67;66.98;100305.95;1695132;85;21098;-82
2022/01/25 19:38:40;;;;;;;24.07;8.95;;;;;;;-3.70;67.73;100300.70;1695144;85;21082;-83
2022/01/25 19:41:09;;;;;;;30.20;9.58;;;;;;;-3.69;67.43;100304.59;1695065;85;21281;-82
2022/01/25 19:43:36;;;;;;;22.77;10.28;;;;;;;-3.77;68.35;100301.20;1695316;84;21046;-83
2022/01/25 19:46:03;;;;;;;31.77;10.13;;;;;;;-3.80;68.03;100314.22;1695180;82;21082;-83
2022/01/25 19:48:43;;;;;;;25.97;10.08;;;;;;;-3.85;68.74;100311.83;1705894;79;21165;31
2022/01/25 19:51:10;;;;;;;26.97;9.15;;;;;;;-3.80;67.64;100304.05;1735550;77;22390;-80
2022/01/25 19:53:40;;;;;;;34.33;12.75;;;;;;;-3.80;67.47;100300.25;1702182;82;21124;-83
2022/01/25 20:02:15;;;;;;;24.52;9.58;;;;;;;-3.76;68.33;100298.74;1733828;79;21107;-85
2022/01/25 20:04:42;;;;;;;25.60;9.85;;;;;;;-3.83;68.71;100294.13;1756633;79;21043;-82
2022/01/25 20:07:09;;;;;;;24.43;9.70;;;;;;;-3.83;69.48;100296.66;1756442;79;21035;-84
2022/01/25 20:09:42;;;;;;;22.23;9.13;;;;;;;-3.79;68.66;100302.38;1705643;79;22439;-77
2022/01/25 20:18:01;;;;;;;30.45;10.03;;;;;;;-3.67;68.30;100290.30;1708112;78;21049;-80
2022/01/25 20:20:36;;;;;;;27.22;10.05;;;;;;;-3.68;69.69;100286.02;1759500;77;21069;-79
2022/01/25 20:25:36;;;;;;;25.88;9.03;;;;;;;-3.72;70.64;100293.02;1732717;80;21064;-82
2022/01/25 20:27:57;;;;;;;24.40;8.98;;;;;;;-3.78;70.90;100291.41;1748613;76;21051;-84
2022/01/25 20:30:33;;;;;;;25.60;8.90;;;;;;;-3.78;71.39;100288.86;1747369;77;21152;-78
2022/01/25 20:32:55;;;;;;;25.82;9.73;;;;;;;-3.80;71.79;100288.81;1738537;79;21071;-84
2022/01/25 20:35:26;;;;;;;21.35;8.75;;;;;;;-3.82;72.24;100290.77;1722866;81;21028;-83
2022/01/25 20:47:08;;;;;;;25.67;9.60;;;;;;;-3.82;71.69;100281.50;1700233;79;21110;31